sensor_id;sensor_type;location;lat;lon;timestamp;temperature;humidity
68274;SHT30;55104;47.356;19.448;2023-03-12T00:01:33;1.53;65.54
68274;SHT30;55104;47.356;19.448;2023-03-12T00:04:35;1.50;65.68
68274;SHT30;55104;47.356;19.448;2023-03-12T00:07:37;1.47;65.67
68274;SHT30;55104;47.356;19.448;2023-03-12T00:10:41;1.42;65.81
68274;SHT30;55104;47.356;19.448;2023-03-12T00:13:43;1.40;65.29
68274;SHT30;55104;47.356;19.448;2023-03-12T00:16:45;1.40;65.51
68274;SHT30;55104;47.356;19.448;2023-03-12T00:19:51;1.43;64.81
68274;SHT30;55104;47.356;19.448;2023-03-12T00:22:54;1.43;64.77
68274;SHT30;55104;47.356;19.448;2023-03-12T00:26:10;1.47;65.10
68274;SHT30;55104;47.356;19.448;2023-03-12T00:29:12;1.33;66.11
68274;SHT30;55104;47.356;19.448;2023-03-12T00:32:15;1.22;66.75
68274;SHT30;55104;47.356;19.448;2023-03-12T00:35:17;1.25;66.95
68274;SHT30;55104;47.356;19.448;2023-03-12T00:38:19;1.24;67.30
68274;SHT30;55104;47.356;19.448;2023-03-12T00:41:23;1.26;67.74
68274;SHT30;55104;47.356;19.448;2023-03-12T00:44:25;1.16;68.69
68274;SHT30;55104;47.356;19.448;2023-03-12T00:47:27;1.04;69.20
68274;SHT30;55104;47.356;19.448;2023-03-12T00:50:30;1.05;69.42
68274;SHT30;55104;47.356;19.448;2023-03-12T00:53:32;1.01;69.70
68274;SHT30;55104;47.356;19.448;2023-03-12T00:56:34;0.94;70.08
68274;SHT30;55104;47.356;19.448;2023-03-12T00:59:36;0.94;69.86
68274;SHT30;55104;47.356;19.448;2023-03-12T01:02:41;0.91;69.66
68274;SHT30;55104;47.356;19.448;2023-03-12T01:05:43;0.90;69.71
68274;SHT30;55104;47.356;19.448;2023-03-12T01:08:46;0.79;69.99
68274;SHT30;55104;47.356;19.448;2023-03-12T01:11:48;0.71;69.86
68274;SHT30;55104;47.356;19.448;2023-03-12T01:14:50;0.67;69.84
68274;SHT30;55104;47.356;19.448;2023-03-12T01:17:52;0.67;70.08
68274;SHT30;55104;47.356;19.448;2023-03-12T01:20:55;0.61;70.23
68274;SHT30;55104;47.356;19.448;2023-03-12T01:23:57;0.57;70.24
68274;SHT30;55104;47.356;19.448;2023-03-12T01:27:00;0.63;69.93
68274;SHT30;55104;47.356;19.448;2023-03-12T01:30:03;0.69;69.54
68274;SHT30;55104;47.356;19.448;2023-03-12T01:33:06;0.60;69.80
68274;SHT30;55104;47.356;19.448;2023-03-12T01:36:19;0.56;70.00
68274;SHT30;55104;47.356;19.448;2023-03-12T01:39:22;0.49;70.18
68274;SHT30;55104;47.356;19.448;2023-03-12T01:42:24;0.52;69.97
68274;SHT30;55104;47.356;19.448;2023-03-12T01:46:01;0.39;70.07
68274;SHT30;55104;47.356;19.448;2023-03-12T01:49:23;0.49;69.52
68274;SHT30;55104;47.356;19.448;2023-03-12T01:52:33;0.48;69.02
68274;SHT30;55104;47.356;19.448;2023-03-12T01:55:36;0.52;69.07
68274;SHT30;55104;47.356;19.448;2023-03-12T01:58:42;0.49;68.82
68274;SHT30;55104;47.356;19.448;2023-03-12T02:01:46;0.53;68.01
68274;SHT30;55104;47.356;19.448;2023-03-12T02:04:51;0.49;67.93
68274;SHT30;55104;47.356;19.448;2023-03-12T02:07:58;0.50;67.84
68274;SHT30;55104;47.356;19.448;2023-03-12T02:11:00;0.43;67.82
68274;SHT30;55104;47.356;19.448;2023-03-12T02:14:03;0.41;68.02
68274;SHT30;55104;47.356;19.448;2023-03-12T02:17:05;0.38;67.67
68274;SHT30;55104;47.356;19.448;2023-03-12T02:20:15;0.38;68.17
68274;SHT30;55104;47.356;19.448;2023-03-12T02:26:56;0.22;68.70
68274;SHT30;55104;47.356;19.448;2023-03-12T02:29:58;0.19;68.68
68274;SHT30;55104;47.356;19.448;2023-03-12T02:33:04;0.08;69.22
68274;SHT30;55104;47.356;19.448;2023-03-12T02:36:07;0.12;68.85
68274;SHT30;55104;47.356;19.448;2023-03-12T02:39:11;0.11;69.04
68274;SHT30;55104;47.356;19.448;2023-03-12T02:42:13;0.06;69.24
68274;SHT30;55104;47.356;19.448;2023-03-12T02:45:16;0.04;69.18
68274;SHT30;55104;47.356;19.448;2023-03-12T02:48:19;-0.09;69.48
68274;SHT30;55104;47.356;19.448;2023-03-12T02:51:22;-0.07;69.79
68274;SHT30;55104;47.356;19.448;2023-03-12T02:54:24;-0.13;69.77
68274;SHT30;55104;47.356;19.448;2023-03-12T02:57:26;-0.17;69.96
68274;SHT30;55104;47.356;19.448;2023-03-12T03:00:29;-0.27;69.87
68274;SHT30;55104;47.356;19.448;2023-03-12T03:03:36;-0.27;69.94
68274;SHT30;55104;47.356;19.448;2023-03-12T03:06:40;-0.30;70.05
68274;SHT30;55104;47.356;19.448;2023-03-12T03:09:46;-0.29;70.14
68274;SHT30;55104;47.356;19.448;2023-03-12T03:12:48;-0.45;70.51
68274;SHT30;55104;47.356;19.448;2023-03-12T03:15:51;-0.57;70.91
68274;SHT30;55104;47.356;19.448;2023-03-12T03:18:53;-0.40;70.41
68274;SHT30;55104;47.356;19.448;2023-03-12T03:21:55;-0.47;70.62
68274;SHT30;55104;47.356;19.448;2023-03-12T03:24:57;-0.64;71.01
68274;SHT30;55104;47.356;19.448;2023-03-12T03:28:00;-0.72;71.39
68274;SHT30;55104;47.356;19.448;2023-03-12T03:31:02;-0.74;71.93
68274;SHT30;55104;47.356;19.448;2023-03-12T03:34:09;-0.77;72.78
68274;SHT30;55104;47.356;19.448;2023-03-12T03:37:11;-0.79;72.13
68274;SHT30;55104;47.356;19.448;2023-03-12T03:40:14;-0.78;72.16
68274;SHT30;55104;47.356;19.448;2023-03-12T03:43:17;-0.79;72.42
68274;SHT30;55104;47.356;19.448;2023-03-12T03:46:19;-0.88;72.69
68274;SHT30;55104;47.356;19.448;2023-03-12T03:49:27;-0.97;72.98
68274;SHT30;55104;47.356;19.448;2023-03-12T03:52:30;-0.95;72.87
68274;SHT30;55104;47.356;19.448;2023-03-12T03:55:37;-1.00;73.34
68274;SHT30;55104;47.356;19.448;2023-03-12T03:58:41;-1.07;73.37
68274;SHT30;55104;47.356;19.448;2023-03-12T04:01:43;-1.13;73.73
68274;SHT30;55104;47.356;19.448;2023-03-12T04:04:46;-1.29;74.03
68274;SHT30;55104;47.356;19.448;2023-03-12T04:07:51;-1.30;74.22
68274;SHT30;55104;47.356;19.448;2023-03-12T04:10:56;-1.30;74.79
68274;SHT30;55104;47.356;19.448;2023-03-12T04:13:58;-1.30;74.55
68274;SHT30;55104;47.356;19.448;2023-03-12T04:17:04;-1.36;74.93
68274;SHT30;55104;47.356;19.448;2023-03-12T04:20:07;-1.40;75.08
68274;SHT30;55104;47.356;19.448;2023-03-12T04:23:12;-1.43;75.24
68274;SHT30;55104;47.356;19.448;2023-03-12T04:26:14;-1.44;75.19
68274;SHT30;55104;47.356;19.448;2023-03-12T04:29:18;-1.47;75.25
68274;SHT30;55104;47.356;19.448;2023-03-12T04:32:20;-1.44;75.33
68274;SHT30;55104;47.356;19.448;2023-03-12T04:35:23;-1.43;75.40
68274;SHT30;55104;47.356;19.448;2023-03-12T04:38:27;-1.48;75.11
68274;SHT30;55104;47.356;19.448;2023-03-12T04:41:30;-1.37;74.31
68274;SHT30;55104;47.356;19.448;2023-03-12T04:44:40;-1.39;74.50
68274;SHT30;55104;47.356;19.448;2023-03-12T04:47:42;-1.48;74.65
68274;SHT30;55104;47.356;19.448;2023-03-12T04:50:46;-1.54;74.80
68274;SHT30;55104;47.356;19.448;2023-03-12T04:53:48;-1.58;75.27
68274;SHT30;55104;47.356;19.448;2023-03-12T04:56:50;-1.60;75.44
68274;SHT30;55104;47.356;19.448;2023-03-12T04:59:54;-1.68;75.50
68274;SHT30;55104;47.356;19.448;2023-03-12T05:02:57;-1.68;75.67
68274;SHT30;55104;47.356;19.448;2023-03-12T05:06:01;-1.64;75.37
68274;SHT30;55104;47.356;19.448;2023-03-12T05:09:03;-1.65;75.78
68274;SHT30;55104;47.356;19.448;2023-03-12T05:12:06;-1.71;76.03
68274;SHT30;55104;47.356;19.448;2023-03-12T05:15:08;-1.75;76.17
68274;SHT30;55104;47.356;19.448;2023-03-12T05:18:11;-1.77;76.28
68274;SHT30;55104;47.356;19.448;2023-03-12T05:21:16;-1.83;76.65
68274;SHT30;55104;47.356;19.448;2023-03-12T05:24:18;-1.78;77.35
68274;SHT30;55104;47.356;19.448;2023-03-12T05:27:23;-1.79;77.35
68274;SHT30;55104;47.356;19.448;2023-03-12T05:30:27;-1.71;77.03
68274;SHT30;55104;47.356;19.448;2023-03-12T05:33:29;-1.65;76.81
68274;SHT30;55104;47.356;19.448;2023-03-12T05:36:34;-1.65;76.93
68274;SHT30;55104;47.356;19.448;2023-03-12T05:39:37;-1.61;76.58
68274;SHT30;55104;47.356;19.448;2023-03-12T05:42:40;-1.58;76.52
68274;SHT30;55104;47.356;19.448;2023-03-12T05:45:42;-1.52;76.32
68274;SHT30;55104;47.356;19.448;2023-03-12T05:48:45;-1.41;76.21
68274;SHT30;55104;47.356;19.448;2023-03-12T05:51:49;-1.41;76.27
68274;SHT30;55104;47.356;19.448;2023-03-12T05:54:53;-1.39;76.77
68274;SHT30;55104;47.356;19.448;2023-03-12T05:57:55;-1.27;77.28
68274;SHT30;55104;47.356;19.448;2023-03-12T06:00:58;-1.21;77.35
68274;SHT30;55104;47.356;19.448;2023-03-12T06:04:00;-1.09;77.12
68274;SHT30;55104;47.356;19.448;2023-03-12T06:07:02;-1.02;77.15
68274;SHT30;55104;47.356;19.448;2023-03-12T06:10:05;-0.91;76.94
68274;SHT30;55104;47.356;19.448;2023-03-12T06:13:08;-0.82;76.37
68274;SHT30;55104;47.356;19.448;2023-03-12T06:16:24;-0.77;76.76
68274;SHT30;55104;47.356;19.448;2023-03-12T06:19:26;-0.62;76.68
68274;SHT30;55104;47.356;19.448;2023-03-12T06:22:28;-0.54;76.47
68274;SHT30;55104;47.356;19.448;2023-03-12T06:25:30;-0.47;76.60
68274;SHT30;55104;47.356;19.448;2023-03-12T06:28:33;-0.34;76.55
68274;SHT30;55104;47.356;19.448;2023-03-12T06:31:35;-0.20;76.30
68274;SHT30;55104;47.356;19.448;2023-03-12T06:34:39;-0.10;76.10
68274;SHT30;55104;47.356;19.448;2023-03-12T06:37:41;0.08;76.23
68274;SHT30;55104;47.356;19.448;2023-03-12T06:40:53;0.26;76.11
68274;SHT30;55104;47.356;19.448;2023-03-12T06:43:55;0.39;76.64
68274;SHT30;55104;47.356;19.448;2023-03-12T06:46:57;0.53;76.20
68274;SHT30;55104;47.356;19.448;2023-03-12T06:49:59;0.66;75.58
68274;SHT30;55104;47.356;19.448;2023-03-12T06:53:01;0.76;75.80
68274;SHT30;55104;47.356;19.448;2023-03-12T06:56:03;0.95;75.78
68274;SHT30;55104;47.356;19.448;2023-03-12T06:59:06;1.05;74.73
68274;SHT30;55104;47.356;19.448;2023-03-12T07:02:10;1.14;74.53
68274;SHT30;55104;47.356;19.448;2023-03-12T07:05:12;1.31;74.68
68274;SHT30;55104;47.356;19.448;2023-03-12T07:08:15;1.40;73.79
68274;SHT30;55104;47.356;19.448;2023-03-12T07:11:17;1.45;73.21
68274;SHT30;55104;47.356;19.448;2023-03-12T07:14:19;1.52;73.77
68274;SHT30;55104;47.356;19.448;2023-03-12T07:17:22;1.67;73.35
68274;SHT30;55104;47.356;19.448;2023-03-12T07:20:26;1.75;73.21
68274;SHT30;55104;47.356;19.448;2023-03-12T07:23:28;1.80;72.82
68274;SHT30;55104;47.356;19.448;2023-03-12T07:26:30;1.87;71.89
68274;SHT30;55104;47.356;19.448;2023-03-12T07:29:32;1.99;71.52
68274;SHT30;55104;47.356;19.448;2023-03-12T07:32:34;2.05;71.07
68274;SHT30;55104;47.356;19.448;2023-03-12T07:35:38;2.18;70.99
68274;SHT30;55104;47.356;19.448;2023-03-12T07:38:41;2.32;70.67
68274;SHT30;55104;47.356;19.448;2023-03-12T07:41:42;2.45;69.35
68274;SHT30;55104;47.356;19.448;2023-03-12T07:44:45;2.53;69.39
68274;SHT30;55104;47.356;19.448;2023-03-12T07:47:48;2.58;67.92
68274;SHT30;55104;47.356;19.448;2023-03-12T07:50:51;2.68;67.29
68274;SHT30;55104;47.356;19.448;2023-03-12T07:53:53;2.84;66.83
68274;SHT30;55104;47.356;19.448;2023-03-12T07:56:56;2.95;66.60
68274;SHT30;55104;47.356;19.448;2023-03-12T07:59:58;3.09;65.96
68274;SHT30;55104;47.356;19.448;2023-03-12T08:03:00;3.22;64.04
68274;SHT30;55104;47.356;19.448;2023-03-12T08:06:03;3.02;64.82
68274;SHT30;55104;47.356;19.448;2023-03-12T08:09:06;3.15;65.57
68274;SHT30;55104;47.356;19.448;2023-03-12T08:12:08;3.32;64.50
68274;SHT30;55104;47.356;19.448;2023-03-12T08:15:10;3.40;61.24
68274;SHT30;55104;47.356;19.448;2023-03-12T08:18:13;3.59;61.44
68274;SHT30;55104;47.356;19.448;2023-03-12T08:21:15;3.67;62.51
68274;SHT30;55104;47.356;19.448;2023-03-12T08:24:18;3.83;63.28
68274;SHT30;55104;47.356;19.448;2023-03-12T08:27:21;3.80;62.22
68274;SHT30;55104;47.356;19.448;2023-03-12T08:30:24;3.93;62.06
68274;SHT30;55104;47.356;19.448;2023-03-12T08:33:30;4.13;61.62
68274;SHT30;55104;47.356;19.448;2023-03-12T08:36:32;4.26;60.02
68274;SHT30;55104;47.356;19.448;2023-03-12T08:39:34;4.32;58.53
68274;SHT30;55104;47.356;19.448;2023-03-12T08:42:36;4.18;58.16
68274;SHT30;55104;47.356;19.448;2023-03-12T08:45:38;4.35;56.69
68274;SHT30;55104;47.356;19.448;2023-03-12T08:48:40;4.46;57.25
68274;SHT30;55104;47.356;19.448;2023-03-12T08:51:43;4.56;58.74
68274;SHT30;55104;47.356;19.448;2023-03-12T08:54:45;4.63;57.39
68274;SHT30;55104;47.356;19.448;2023-03-12T08:57:47;4.80;57.08
68274;SHT30;55104;47.356;19.448;2023-03-12T09:00:50;5.05;57.08
68274;SHT30;55104;47.356;19.448;2023-03-12T09:03:53;5.09;55.03
68274;SHT30;55104;47.356;19.448;2023-03-12T09:06:56;5.19;54.00
68274;SHT30;55104;47.356;19.448;2023-03-12T09:09:58;5.14;55.26
68274;SHT30;55104;47.356;19.448;2023-03-12T09:13:01;5.07;55.46
68274;SHT30;55104;47.356;19.448;2023-03-12T09:16:03;5.22;55.59
68274;SHT30;55104;47.356;19.448;2023-03-12T09:19:06;5.25;54.44
68274;SHT30;55104;47.356;19.448;2023-03-12T09:22:08;5.31;53.60
68274;SHT30;55104;47.356;19.448;2023-03-12T09:25:10;5.22;52.45
68274;SHT30;55104;47.356;19.448;2023-03-12T09:28:13;5.39;52.62
68274;SHT30;55104;47.356;19.448;2023-03-12T09:31:17;5.69;52.24
68274;SHT30;55104;47.356;19.448;2023-03-12T09:34:19;5.71;50.35
68274;SHT30;55104;47.356;19.448;2023-03-12T09:37:21;6.14;51.65
68274;SHT30;55104;47.356;19.448;2023-03-12T09:40:28;6.25;48.69
68274;SHT30;55104;47.356;19.448;2023-03-12T09:47:32;6.08;47.47
68274;SHT30;55104;47.356;19.448;2023-03-12T09:50:37;6.22;49.54
68274;SHT30;55104;47.356;19.448;2023-03-12T09:53:50;6.29;48.64
68274;SHT30;55104;47.356;19.448;2023-03-12T09:56:53;6.46;48.68
68274;SHT30;55104;47.356;19.448;2023-03-12T09:59:58;6.36;49.79
68274;SHT30;55104;47.356;19.448;2023-03-12T10:06:48;6.47;48.85
68274;SHT30;55104;47.356;19.448;2023-03-12T10:10:24;6.44;47.39
68274;SHT30;55104;47.356;19.448;2023-03-12T10:16:58;6.70;47.67
68274;SHT30;55104;47.356;19.448;2023-03-12T10:20:28;6.54;46.67
68274;SHT30;55104;47.356;19.448;2023-03-12T10:27:17;7.01;46.28
68274;SHT30;55104;47.356;19.448;2023-03-12T10:30:22;7.08;44.58
68274;SHT30;55104;47.356;19.448;2023-03-12T10:33:56;7.30;46.31
68274;SHT30;55104;47.356;19.448;2023-03-12T10:37:04;7.18;45.00
68274;SHT30;55104;47.356;19.448;2023-03-12T10:40:28;7.32;44.22
68274;SHT30;55104;47.356;19.448;2023-03-12T10:43:33;7.42;44.19
68274;SHT30;55104;47.356;19.448;2023-03-12T10:46:50;7.63;45.75
68274;SHT30;55104;47.356;19.448;2023-03-12T10:49:53;7.71;44.20
68274;SHT30;55104;47.356;19.448;2023-03-12T10:56:17;8.19;45.29
68274;SHT30;55104;47.356;19.448;2023-03-12T10:59:21;8.32;44.29
68274;SHT30;55104;47.356;19.448;2023-03-12T11:02:38;7.91;43.31
68274;SHT30;55104;47.356;19.448;2023-03-12T11:05:52;8.03;43.46
68274;SHT30;55104;47.356;19.448;2023-03-12T11:09:21;7.90;42.33
68274;SHT30;55104;47.356;19.448;2023-03-12T11:12:27;8.06;42.14
68274;SHT30;55104;47.356;19.448;2023-03-12T11:15:38;8.19;42.58
68274;SHT30;55104;47.356;19.448;2023-03-12T11:19:01;8.59;42.81
68274;SHT30;55104;47.356;19.448;2023-03-12T11:22:07;8.59;40.97
68274;SHT30;55104;47.356;19.448;2023-03-12T11:25:30;8.29;41.20
68274;SHT30;55104;47.356;19.448;2023-03-12T11:28:37;8.57;42.64
68274;SHT30;55104;47.356;19.448;2023-03-12T11:31:43;8.83;41.67
68274;SHT30;55104;47.356;19.448;2023-03-12T11:34:48;9.02;41.86
68274;SHT30;55104;47.356;19.448;2023-03-12T11:38:00;8.95;40.27
68274;SHT30;55104;47.356;19.448;2023-03-12T11:41:46;8.77;42.96
68274;SHT30;55104;47.356;19.448;2023-03-12T11:44:43;9.35;42.38
68274;SHT30;55104;47.356;19.448;2023-03-12T11:47:58;9.44;40.88
68274;SHT30;55104;47.356;19.448;2023-03-12T12:01:59;8.81;40.44
68274;SHT30;55104;47.356;19.448;2023-03-12T12:08:23;8.71;36.65
68274;SHT30;55104;47.356;19.448;2023-03-12T12:31:55;9.87;35.99
68274;SHT30;55104;47.356;19.448;2023-03-12T12:35:24;9.66;32.53
68274;SHT30;55104;47.356;19.448;2023-03-12T12:38:41;9.38;31.17
68274;SHT30;55104;47.356;19.448;2023-03-12T12:41:52;9.44;32.17
68274;SHT30;55104;47.356;19.448;2023-03-12T12:44:56;9.74;32.71
68274;SHT30;55104;47.356;19.448;2023-03-12T12:48:02;9.88;32.34
68274;SHT30;55104;47.356;19.448;2023-03-12T12:51:08;9.67;31.82
68274;SHT30;55104;47.356;19.448;2023-03-12T13:01:43;9.50;32.61
68274;SHT30;55104;47.356;19.448;2023-03-12T13:04:45;9.18;32.99
68274;SHT30;55104;47.356;19.448;2023-03-12T13:07:48;9.54;33.66
68274;SHT30;55104;47.356;19.448;2023-03-12T13:10:50;9.93;33.45
68274;SHT30;55104;47.356;19.448;2023-03-12T13:14:19;10.09;34.22
68274;SHT30;55104;47.356;19.448;2023-03-12T13:17:23;9.94;34.95
68274;SHT30;55104;47.356;19.448;2023-03-12T13:20:39;9.81;35.00
68274;SHT30;55104;47.356;19.448;2023-03-12T13:24:09;9.64;35.89
68274;SHT30;55104;47.356;19.448;2023-03-12T13:33:51;9.90;33.84
68274;SHT30;55104;47.356;19.448;2023-03-12T13:36:59;10.13;34.80
68274;SHT30;55104;47.356;19.448;2023-03-12T13:40:01;9.85;35.03
68274;SHT30;55104;47.356;19.448;2023-03-12T13:43:12;9.91;34.94
68274;SHT30;55104;47.356;19.448;2023-03-12T13:49:18;9.49;35.35
68274;SHT30;55104;47.356;19.448;2023-03-12T13:52:25;9.46;35.86
68274;SHT30;55104;47.356;19.448;2023-03-12T13:55:29;9.58;35.43
68274;SHT30;55104;47.356;19.448;2023-03-12T13:58:40;9.71;35.07
68274;SHT30;55104;47.356;19.448;2023-03-12T14:01:47;9.85;34.38
68274;SHT30;55104;47.356;19.448;2023-03-12T14:04:52;9.77;32.92
68274;SHT30;55104;47.356;19.448;2023-03-12T14:14:56;9.69;31.71
68274;SHT30;55104;47.356;19.448;2023-03-12T14:18:03;9.71;31.14
68274;SHT30;55104;47.356;19.448;2023-03-12T14:21:13;9.88;32.52
68274;SHT30;55104;47.356;19.448;2023-03-12T14:24:39;9.91;32.50
68274;SHT30;55104;47.356;19.448;2023-03-12T14:27:44;9.78;30.84
68274;SHT30;55104;47.356;19.448;2023-03-12T14:31:15;9.54;31.50
68274;SHT30;55104;47.356;19.448;2023-03-12T14:34:20;9.50;29.72
68274;SHT30;55104;47.356;19.448;2023-03-12T14:37:28;9.36;29.52
68274;SHT30;55104;47.356;19.448;2023-03-12T14:40:39;9.46;29.38
68274;SHT30;55104;47.356;19.448;2023-03-12T14:43:45;9.39;27.81
68274;SHT30;55104;47.356;19.448;2023-03-12T14:47:16;9.54;28.90
68274;SHT30;55104;47.356;19.448;2023-03-12T14:50:22;9.49;28.60
68274;SHT30;55104;47.356;19.448;2023-03-12T14:53:30;9.39;26.90
68274;SHT30;55104;47.356;19.448;2023-03-12T14:56:33;9.36;27.19
68274;SHT30;55104;47.356;19.448;2023-03-12T14:59:36;9.26;27.06
68274;SHT30;55104;47.356;19.448;2023-03-12T15:02:41;9.30;26.88
68274;SHT30;55104;47.356;19.448;2023-03-12T15:05:48;9.15;26.84
68274;SHT30;55104;47.356;19.448;2023-03-12T15:08:50;8.89;27.77
68274;SHT30;55104;47.356;19.448;2023-03-12T15:11:58;9.05;28.90
68274;SHT30;55104;47.356;19.448;2023-03-12T15:15:05;8.95;28.36
68274;SHT30;55104;47.356;19.448;2023-03-12T15:18:28;8.98;28.61
68274;SHT30;55104;47.356;19.448;2023-03-12T15:21:33;8.81;28.68
68274;SHT30;55104;47.356;19.448;2023-03-12T15:24:39;8.74;29.06
68274;SHT30;55104;47.356;19.448;2023-03-12T15:27:41;8.71;29.36
68274;SHT30;55104;47.356;19.448;2023-03-12T15:30:43;8.77;29.75
68274;SHT30;55104;47.356;19.448;2023-03-12T15:33:59;8.73;28.18
68274;SHT30;55104;47.356;19.448;2023-03-12T15:40:27;8.39;29.13
68274;SHT30;55104;47.356;19.448;2023-03-12T15:43:30;8.22;29.87
68274;SHT30;55104;47.356;19.448;2023-03-12T15:46:32;8.21;29.92
68274;SHT30;55104;47.356;19.448;2023-03-12T15:49:37;8.16;31.50
68274;SHT30;55104;47.356;19.448;2023-03-12T15:52:40;8.16;30.26
68274;SHT30;55104;47.356;19.448;2023-03-12T16:02:34;8.08;33.15
68274;SHT30;55104;47.356;19.448;2023-03-12T16:05:38;7.95;33.32
68274;SHT30;55104;47.356;19.448;2023-03-12T16:08:46;7.78;33.48
68274;SHT30;55104;47.356;19.448;2023-03-12T16:11:49;7.69;33.43
68274;SHT30;55104;47.356;19.448;2023-03-12T16:14:52;7.49;33.40
68274;SHT30;55104;47.356;19.448;2023-03-12T16:17:56;7.37;33.77
68274;SHT30;55104;47.356;19.448;2023-03-12T16:20:58;7.25;33.89
68274;SHT30;55104;47.356;19.448;2023-03-12T16:24:00;7.19;34.62
68274;SHT30;55104;47.356;19.448;2023-03-12T16:27:02;6.99;35.10
68274;SHT30;55104;47.356;19.448;2023-03-12T16:30:14;6.92;34.50
68274;SHT30;55104;47.356;19.448;2023-03-12T16:33:19;6.73;34.82
68274;SHT30;55104;47.356;19.448;2023-03-12T16:36:21;6.58;35.30
68274;SHT30;55104;47.356;19.448;2023-03-12T16:39:23;6.52;35.46
68274;SHT30;55104;47.356;19.448;2023-03-12T16:42:26;6.43;35.12
68274;SHT30;55104;47.356;19.448;2023-03-12T16:45:29;6.33;36.02
68274;SHT30;55104;47.356;19.448;2023-03-12T16:48:32;6.21;36.31
68274;SHT30;55104;47.356;19.448;2023-03-12T16:51:34;6.09;36.48
68274;SHT30;55104;47.356;19.448;2023-03-12T16:54:36;6.04;36.69
68274;SHT30;55104;47.356;19.448;2023-03-12T16:57:44;5.94;37.49
68274;SHT30;55104;47.356;19.448;2023-03-12T17:00:48;5.78;37.31
68274;SHT30;55104;47.356;19.448;2023-03-12T17:03:50;5.73;38.52
68274;SHT30;55104;47.356;19.448;2023-03-12T17:06:54;5.74;37.94
68274;SHT30;55104;47.356;19.448;2023-03-12T17:09:57;5.63;38.27
68274;SHT30;55104;47.356;19.448;2023-03-12T17:12:59;5.46;38.67
68274;SHT30;55104;47.356;19.448;2023-03-12T17:16:01;5.31;39.35
68274;SHT30;55104;47.356;19.448;2023-03-12T17:19:03;5.22;39.93
68274;SHT30;55104;47.356;19.448;2023-03-12T17:22:05;5.07;39.55
68274;SHT30;55104;47.356;19.448;2023-03-12T17:25:19;4.94;40.11
68274;SHT30;55104;47.356;19.448;2023-03-12T17:28:22;4.77;39.97
68274;SHT30;55104;47.356;19.448;2023-03-12T17:31:28;4.63;41.58
68274;SHT30;55104;47.356;19.448;2023-03-12T17:34:30;4.56;42.40
68274;SHT30;55104;47.356;19.448;2023-03-12T17:37:33;4.49;41.96
68274;SHT30;55104;47.356;19.448;2023-03-12T17:40:42;4.43;42.15
68274;SHT30;55104;47.356;19.448;2023-03-12T17:43:45;4.35;43.38
68274;SHT30;55104;47.356;19.448;2023-03-12T17:46:47;4.23;43.36
68274;SHT30;55104;47.356;19.448;2023-03-12T17:50:00;4.18;43.28
68274;SHT30;55104;47.356;19.448;2023-03-12T17:53:03;4.15;43.50
68274;SHT30;55104;47.356;19.448;2023-03-12T17:56:05;4.09;44.40
68274;SHT30;55104;47.356;19.448;2023-03-12T17:59:08;4.06;45.51
68274;SHT30;55104;47.356;19.448;2023-03-12T18:02:12;3.90;45.87
68274;SHT30;55104;47.356;19.448;2023-03-12T18:05:17;3.77;46.69
68274;SHT30;55104;47.356;19.448;2023-03-12T18:08:20;3.62;47.21
68274;SHT30;55104;47.356;19.448;2023-03-12T18:11:22;3.49;48.62
68274;SHT30;55104;47.356;19.448;2023-03-12T18:14:24;3.40;49.14
68274;SHT30;55104;47.356;19.448;2023-03-12T18:17:26;3.35;49.04
68274;SHT30;55104;47.356;19.448;2023-03-12T18:20:28;3.21;50.52
68274;SHT30;55104;47.356;19.448;2023-03-12T18:23:40;3.04;51.34
68274;SHT30;55104;47.356;19.448;2023-03-12T18:26:45;2.98;51.88
68274;SHT30;55104;47.356;19.448;2023-03-12T18:29:48;2.91;52.34
68274;SHT30;55104;47.356;19.448;2023-03-12T18:32:50;2.81;52.66
68274;SHT30;55104;47.356;19.448;2023-03-12T18:35:52;2.67;52.93
68274;SHT30;55104;47.356;19.448;2023-03-12T18:38:55;2.54;52.95
68274;SHT30;55104;47.356;19.448;2023-03-12T18:42:00;2.52;53.21
68274;SHT30;55104;47.356;19.448;2023-03-12T18:45:02;2.40;54.47
68274;SHT30;55104;47.356;19.448;2023-03-12T18:48:05;2.33;55.40
68274;SHT30;55104;47.356;19.448;2023-03-12T18:51:07;2.29;56.03
68274;SHT30;55104;47.356;19.448;2023-03-12T18:54:09;2.28;54.95
68274;SHT30;55104;47.356;19.448;2023-03-12T18:57:13;2.18;55.29
68274;SHT30;55104;47.356;19.448;2023-03-12T19:00:16;2.12;55.90
68274;SHT30;55104;47.356;19.448;2023-03-12T19:03:19;2.12;57.00
68274;SHT30;55104;47.356;19.448;2023-03-12T19:06:22;2.07;57.46
68274;SHT30;55104;47.356;19.448;2023-03-12T19:09:24;1.97;57.39
68274;SHT30;55104;47.356;19.448;2023-03-12T19:12:26;1.88;57.28
68274;SHT30;55104;47.356;19.448;2023-03-12T19:15:28;1.80;57.75
68274;SHT30;55104;47.356;19.448;2023-03-12T19:18:32;1.75;58.06
68274;SHT30;55104;47.356;19.448;2023-03-12T19:21:35;1.75;57.71
68274;SHT30;55104;47.356;19.448;2023-03-12T19:24:37;1.64;57.98
68274;SHT30;55104;47.356;19.448;2023-03-12T19:27:39;1.63;58.39
68274;SHT30;55104;47.356;19.448;2023-03-12T19:30:41;1.47;57.88
68274;SHT30;55104;47.356;19.448;2023-03-12T19:33:43;1.45;57.82
68274;SHT30;55104;47.356;19.448;2023-03-12T19:36:46;1.43;59.66
68274;SHT30;55104;47.356;19.448;2023-03-12T19:39:48;1.35;60.21
68274;SHT30;55104;47.356;19.448;2023-03-12T19:42:50;1.29;60.33
68274;SHT30;55104;47.356;19.448;2023-03-12T19:45:53;1.28;60.46
68274;SHT30;55104;47.356;19.448;2023-03-12T19:48:56;1.19;59.70
68274;SHT30;55104;47.356;19.448;2023-03-12T19:51:58;1.12;58.63
68274;SHT30;55104;47.356;19.448;2023-03-12T19:55:00;1.14;58.07
68274;SHT30;55104;47.356;19.448;2023-03-12T19:58:06;1.12;58.32
68274;SHT30;55104;47.356;19.448;2023-03-12T20:01:09;1.09;59.37
68274;SHT30;55104;47.356;19.448;2023-03-12T20:04:11;1.09;59.95
68274;SHT30;55104;47.356;19.448;2023-03-12T20:07:13;1.11;59.52
68274;SHT30;55104;47.356;19.448;2023-03-12T20:10:15;1.11;59.49
68274;SHT30;55104;47.356;19.448;2023-03-12T20:13:17;1.18;60.21
68274;SHT30;55104;47.356;19.448;2023-03-12T20:16:19;1.21;59.22
68274;SHT30;55104;47.356;19.448;2023-03-12T20:19:21;1.28;58.86
68274;SHT30;55104;47.356;19.448;2023-03-12T20:22:24;1.31;59.86
68274;SHT30;55104;47.356;19.448;2023-03-12T20:25:26;1.28;60.69
68274;SHT30;55104;47.356;19.448;2023-03-12T20:28:28;1.11;61.70
68274;SHT30;55104;47.356;19.448;2023-03-12T20:31:31;0.98;61.99
68274;SHT30;55104;47.356;19.448;2023-03-12T20:34:33;0.91;61.63
68274;SHT30;55104;47.356;19.448;2023-03-12T20:37:36;0.88;60.33
68274;SHT30;55104;47.356;19.448;2023-03-12T20:40:38;0.77;61.05
68274;SHT30;55104;47.356;19.448;2023-03-12T20:43:41;0.71;61.92
68274;SHT30;55104;47.356;19.448;2023-03-12T20:46:43;0.61;63.39
68274;SHT30;55104;47.356;19.448;2023-03-12T20:49:45;0.59;61.46
68274;SHT30;55104;47.356;19.448;2023-03-12T20:52:47;0.57;61.44
68274;SHT30;55104;47.356;19.448;2023-03-12T20:55:49;0.66;61.77